• Join FlightAware (Why Join?)
  • Login
  • US Flag 
04:24PM EDT


 

Airport Tracker/Info


-or-


 

Live Flight TrackerFlight Track Log ✈ FLG3432 ✈ 17-May-2013 ✈ KALB - KMSP

Flight Track Log - Related Links

Times and Time Zones

All times are in EDT time to prevent confusion due to time zone crossing. See the FLG3432 flight status page for this flight to view local times or setup timezone preferences in your user account.

Time Position Orientation Groundspeed Altitude Reporting Facility
EDT Latitude Longitude Course Direction KTS MPH feet Rate Location/Type
06:27AM 42.7714 -73.8061 304° West 158 182 1,500  Level Boston Center
06:28AM 42.7922 -73.8067 359° North 158 182 2,400 2,040 Climbing Boston Center
06:29AM 42.8250 -73.8669 307° West 206 237 4,400 1,800 Climbing Boston Center
06:29AM 42.8494 -73.9100 308° West 231 266 5,500 2,760 Climbing Boston Center
06:30AM 42.8073 -74.1637 282° West  Level FlightAware Approximate
06:30AM 42.8878 -73.9931 302° West 243 280 9,100  Level Boston Center
06:31AM 42.8265 -74.2888 282° West  Level FlightAware Approximate
06:31AM 42.9244 -74.0647 305° West 248 285 10,800  Level Boston Center
06:32AM 42.8468 -74.4137 283° West  Level FlightAware Approximate
06:32AM 42.9669 -74.1483 305° West 281 323 12,600  Level Boston Center
06:33AM 42.8689 -74.5377 304° West  Level FlightAware Approximate
06:33AM 43.0217 -74.2519 306° West 304 350 15,000  Level Boston Center
06:34AM 43.0572 -74.3722 292° West 309 356 17,300 2,100 Climbing Boston Center
06:35AM 43.0656 -74.4864 276° West 327 376 19,300 1,980 Climbing Boston Center
06:36AM 43.0739 -74.6089 275° West 332 382 21,300 1,500 Climbing Boston Center
06:37AM 43.0803 -74.7086 275° West 332 382 22,400 1,560 Climbing Boston Center
06:38AM 43.0914 -74.8739 275° West 332 382 24,500 1,680 Climbing Boston Center
06:39AM 43.0969 -75.0022 273° West 332 382 25,800 1,260 Climbing Boston Center
06:40AM 43.1042 -75.1361 274° West 345 397 27,100 1,200 Climbing Boston Center
06:41AM 43.1136 -75.2703 276° West 351 404 28,300 1,200 Climbing Boston Center
06:42AM 43.1203 -75.4072 274° West 356 410 29,600 1,200 Climbing Boston Center
06:43AM 43.1272 -75.5411 274° West 356 410 30,800 1,140 Climbing Boston Center
06:45AM 43.1400 -75.7797 274° West 352 405 32,800 1,140 Climbing Cleveland Center
06:46AM 43.1333 -75.8167 256° West 360 414 33,400 1,080 Climbing Toronto Center
06:46AM 43.1456 -75.9158 280° West 347 399 33,900 960 Climbing Cleveland Center
06:47AM 43.1528 -76.0464 274° West 347 399 34,900 960 Climbing Cleveland Center
06:48AM 43.1600 -76.1742 274° West 347 399 35,900 540 Climbing Cleveland Center
06:49AM 43.1525 -76.3083 266° West 352 405 36,000  Climbing Cleveland Center
06:50AM 43.1408 -76.4458 263° West 358 412 36,000  Level Cleveland Center
06:51AM 43.1311 -76.5889 265° West 363 418 36,000  Level Cleveland Center
06:52AM 43.1164 -76.7092 261° West 370 426 36,000  Level Cleveland Center
06:53AM 43.1086 -76.8492 266° West 370 426 36,000  Level Cleveland Center
06:54AM 43.1294 -76.9817 282° West 359 413 36,000  Level Cleveland Center
06:55AM 43.1503 -77.1142 282° West 359 413 36,000  Level Cleveland Center
06:56AM 43.1750 -77.2467 284° West 359 413 36,000  Level Cleveland Center
06:57AM 43.1994 -77.3764 285° West 359 413 36,000  Level Cleveland Center
06:58AM 43.2219 -77.5119 283° West 364 419 36,000  Level Cleveland Center
06:59AM 43.2442 -77.6447 283° West 364 419 36,000  Level Cleveland Center
07:00AM 43.2681 -77.7750 284° West 364 419 36,000  Level Cleveland Center
07:01AM 43.2922 -77.9108 284° West 364 419 36,000  Level Cleveland Center
07:02AM 43.3139 -78.0411 283° West 364 419 36,000  Level Cleveland Center
07:03AM 43.3375 -78.1742 284° West 364 419 36,000  Level Cleveland Center
07:04AM 43.3589 -78.3075 282° West 364 419 36,000  Level Cleveland Center
07:05AM 43.3803 -78.4411 282° West 364 419 36,000  Level Cleveland Center
07:06AM 43.4036 -78.5775 283° West 359 413 36,000  Level Cleveland Center
07:07AM 43.4244 -78.7111 282° West 359 413 36,000  Level Cleveland Center
07:08AM 43.4333 -78.7667 282° West 360 414 36,000  Level Toronto Center
07:09AM 43.4500 -78.9000 280° West 360 414 36,000  Level Toronto Center
07:10AM 43.4667 -79.0333 280° West 360 414 36,000  Level Toronto Center
07:11AM 43.4833 -79.1500 281° West 360 414 36,000  Level Toronto Center
07:12AM 43.5167 -79.3167 285° West 360 414 36,000  Level Toronto Center
07:13AM 43.5333 -79.4333 281° West 360 414 36,000  Level Toronto Center
07:14AM 43.5500 -79.5833 279° West 360 414 36,000  Level Toronto Center
07:15AM 43.5667 -79.7000 281° West 370 426 36,000  Level Toronto Center
07:16AM 43.6000 -79.8333 289° West 370 426 36,000  Level Toronto Center
07:17AM 43.6167 -79.9833 279° West 360 414 36,000  Level Toronto Center
07:18AM 43.6333 -80.1167 280° West 360 414 36,000  Level Toronto Center
07:19AM 43.6667 -80.2500 289° West 360 414 36,000  Level Toronto Center
07:20AM 43.6833 -80.4000 279° West 360 414 36,000  Level Toronto Center
07:21AM 43.7000 -80.5333 280° West 360 414 36,000  Level Toronto Center
07:22AM 43.7167 -80.6667 280° West 370 426 36,000  Level Toronto Center
07:23AM 43.7500 -80.8167 287° West 370 426 36,000  Level Toronto Center
07:24AM 43.7500 -80.9500 270° West 370 426 36,000  Level Toronto Center
07:25AM 43.7667 -81.0833 280° West 370 426 36,000  Level Toronto Center
07:26AM 43.7833 -81.2333 279° West 370 426 36,000  Level Toronto Center
07:27AM 43.8167 -81.3667 289° West 370 426 36,000  Level Toronto Center
07:28AM 43.8333 -81.5000 280° West 370 426 36,000  Level Toronto Center
07:29AM 43.8500 -81.6500 279° West 370 426 36,000  Level Toronto Center
07:30AM 43.8833 -81.7833 289° West 370 426 36,000  Level Toronto Center
07:31AM 43.9000 -81.9167 280° West 370 426 36,000  Level Toronto Center
07:32AM 43.9000 -82.0667 270° West 370 426 36,000  Level Toronto Center
07:33AM 43.9333 -82.2000 289° West 370 426 36,000  Level Toronto Center
07:34AM 43.9500 -82.3500 279° West 370 426 36,000  Level Toronto Center
07:35AM 43.9667 -82.4833 280° West 370 426 36,000  Level Toronto Center
07:36AM 43.9950 -82.6153 287° West 373 429 36,000  Level Minneapolis Center
07:37AM 44.0153 -82.7858 279° West 374 430 36,000  Level Minneapolis Center
07:38AM 44.0328 -82.9275 280° West 373 429 36,000  Level Minneapolis Center
07:39AM 44.0492 -83.0700 279° West 374 430 36,000  Level Minneapolis Center
07:40AM 44.0664 -83.2125 280° West 374 430 36,000  Level Minneapolis Center
07:41AM 44.0847 -83.3544 280° West 374 430 36,000  Level Minneapolis Center
07:42AM 44.1053 -83.4956 282° West 374 430 36,000  Level Minneapolis Center
07:43AM 44.1211 -83.6397 279° West 376 433 36,000  Level Minneapolis Center
07:44AM 44.1414 -83.7822 281° West 376 433 36,000  Level Minneapolis Center
07:45AM 44.1597 -83.9258 280° West 377 434 36,000  Level Minneapolis Center
07:46AM 44.1794 -84.0686 281° West 376 433 36,000  Level Minneapolis Center
07:47AM 44.2017 -84.2394 280° West 375 432 36,000  Level Minneapolis Center
07:48AM 44.2197 -84.3817 280° West 373 429 36,000  Level Minneapolis Center
07:49AM 44.2383 -84.5228 280° West 372 428 36,000  Level Minneapolis Center
07:50AM 44.2600 -84.6914 280° West 370 426 36,000  Level Minneapolis Center
07:51AM 44.2764 -84.8300 279° West 366 421 36,000  Level Minneapolis Center
07:52AM 44.2942 -84.9678 280° West 364 419 36,000  Level Minneapolis Center
07:53AM 44.3108 -85.1056 280° West 361 415 36,000  Level Minneapolis Center
07:54AM 44.3275 -85.2428 280° West 359 413 36,000  Level Minneapolis Center
07:55AM 44.3439 -85.3794 280° West 357 411 36,000  Level Minneapolis Center
07:56AM 44.3597 -85.5158 279° West 357 411 36,000  Level Minneapolis Center
07:57AM 44.3756 -85.6519 279° West 355 409 36,000  Level Minneapolis Center
07:58AM 44.3911 -85.7894 279° West 356 410 36,000  Level Minneapolis Center
07:59AM 44.4067 -85.9256 279° West 353 406 36,000  Level Minneapolis Center
08:00AM 44.4231 -86.0631 280° West 356 410 36,000  Level Minneapolis Center
08:01AM 44.4381 -86.2000 279° West 355 409 36,000  Level Minneapolis Center
08:02AM 44.4525 -86.3364 278° West 353 406 36,000  Level Minneapolis Center
08:03AM 44.4683 -86.4753 279° West 358 412 36,000  Level Minneapolis Center
08:04AM 44.4861 -86.6419 279° West 360 414 36,000  Level Minneapolis Center
08:05AM 44.5008 -86.7794 279° West 358 412 36,000  Level Minneapolis Center
08:06AM 44.5144 -86.9183 278° West 358 412 36,000  Level Minneapolis Center
08:07AM 44.5292 -87.0586 278° West 364 419 36,000  Level Minneapolis Center
08:08AM 44.5447 -87.2000 279° West 366 421 36,000  Level Minneapolis Center
08:09AM 44.5586 -87.3417 278° West 368 423 36,000  Level Minneapolis Center
08:10AM 44.5728 -87.4850 278° West 370 426 36,000  Level Minneapolis Center
08:11AM 44.5858 -87.6272 277° West 371 427 36,000  Level Minneapolis Center
08:12AM 44.6006 -87.7717 278° West 373 429 36,000  Level Minneapolis Center
08:13AM 44.6169 -87.9342 278° West 375 432 36,000  Level Minneapolis Center
08:14AM 44.6283 -88.0783 276° West 372 428 36,000  Level Minneapolis Center
08:15AM 44.5814 -88.2158 244° Southwest 389 448 36,000  Level Minneapolis Center
08:16AM 44.5283 -88.3486 241° Southwest 392 451 36,000 -180 Level Minneapolis Center
08:17AM 44.4939 -88.4894 251° West 391 450 35,700 -660 Descending Minneapolis Center
08:19AM 44.5078 -88.6350 278° West 379 436 34,700 -1,080 Descending Minneapolis Center
08:20AM 44.5317 -88.8072 281° West 385 443 33,500 -1,080 Descending Minneapolis Center
08:21AM 44.5550 -88.9569 282° West 392 451 32,500 -780 Descending Minneapolis Center
08:22AM 44.5767 -89.1125 281° West 404 465 32,000 -300 Descending Minneapolis Center
08:23AM 44.5989 -89.2664 282° West 404 465 32,000  Level Minneapolis Center
08:24AM 44.6211 -89.4194 282° West 402 463 32,000  Level Minneapolis Center
08:25AM 44.6425 -89.5728 281° West 402 463 32,000  Level Minneapolis Center
08:26AM 44.6656 -89.7267 282° West 403 464 32,000  Level Minneapolis Center
08:27AM 44.6844 -89.8556 282° West 404 465 32,000  Level Minneapolis Center
08:28AM 44.7192 -90.0611 283° West 406 467 32,000  Level Minneapolis Center
08:29AM 44.7422 -90.2186 282° West 409 471 32,000  Level Minneapolis Center
08:30AM 44.7672 -90.3725 283° West 407 468 32,000 -480 Level Minneapolis Center
08:31AM 44.7925 -90.5367 282° West 411 473 31,100 -900 Descending Minneapolis Center
08:32AM 44.8142 -90.6806 282° West 419 482 30,200 -1,140 Descending Minneapolis Center
08:33AM 44.8375 -90.8403 282° West 418 481 28,800 -1,440 Descending Minneapolis Center
08:34AM 44.8644 -91.0203 282° West 399 459 27,000 -1,620 Descending Minneapolis Center
08:35AM 44.8906 -91.1956 282° West 387 445 25,200 -1,620 Descending Minneapolis Center
08:36AM 44.9119 -91.3417 282° West 383 441 23,700 -1,800 Descending Minneapolis Center
08:37AM 44.9339 -91.4906 282° West 387 445 21,600 -1,980 Descending Minneapolis Center
08:38AM 44.9550 -91.6322 282° West 379 436 19,700 -1,920 Descending Minneapolis Center
08:39AM 44.9769 -91.7719 283° West 368 423 17,700 -1,920 Descending Minneapolis Center
08:40AM 44.9961 -91.9069 281° West 355 409 15,800 -2,100 Descending Minneapolis Center
08:41AM 45.0181 -92.0664 281° West 348 400 13,400 -2,100 Descending Minneapolis Center
08:42AM 45.0372 -92.2008 281° West 350 403 11,500 -1,140 Descending Minneapolis Center
08:43AM 45.0431 -92.3311 274° West 338 389 11,100 -300 Descending Minneapolis Center
08:44AM 45.0222 -92.4600 257° West 337 388 11,000 -60 Descending Minneapolis Center
08:45AM 45.0014 -92.5908 257° West 341 392 11,000  Level Minneapolis Center
08:46AM 44.9808 -92.7192 257° West 338 389 11,000 -180 Level Minneapolis Center
08:47AM 44.9614 -92.8408 257° West 321 369 10,700 -900 Descending Minneapolis Center
08:48AM 44.9442 -92.9475 257° West 286 329 9,200 -1,320 Descending Minneapolis Center
08:49AM 44.9294 -93.0675 260° West 262 302 8,000 -900 Descending Minneapolis Center
08:50AM 44.9622 -93.1450 301° West 232 267 7,400 -1,020 Descending Minneapolis Center
08:51AM 44.9972 -93.2233 302° West 240 276 6,000 -1,140 Descending Minneapolis Center
08:52AM 45.0325 -93.3050 301° West 245 282 5,100 -540 Descending Minneapolis Center
08:54AM 45.0619 -93.3925 295° West 248 285 5,000 -60 Descending Minneapolis Center
08:55AM 45.0931 -93.4817 296° West 253 291 5,000  Level Minneapolis Center
08:56AM 45.1311 -93.5889 297° West 256 295 5,000 -300 Level Minneapolis Center
08:57AM 45.1261 -93.6625 265° West 221 254 4,400 -540 Descending Minneapolis Center
08:58AM 45.0833 -93.6494 168° South 168 193 4,000 -240 Descending Minneapolis Center
08:59AM 45.0567 -93.6017 128° Southeast 157 181 4,000 -60 Level Minneapolis Center
09:00AM 45.0342 -93.5481 121° Southeast 160 184 3,900 -60 Descending Minneapolis Center
09:01AM 45.0117 -93.4950 121° Southeast 159 183 3,900  Level Minneapolis Center
09:02AM 44.9886 -93.4428 122° Southeast 157 181 3,900 -120 Level Minneapolis Center
09:03AM 44.9661 -93.3897 121° Southeast 159 183 3,700 -660 Descending Minneapolis Center
09:04AM 44.9389 -93.3275 122° Southeast 155 178 2,600 -1,080 Descending Minneapolis Center